sensor_id;sensor_type;location;lat;lon;timestamp;temperature;humidity
11221;DHT22;8517;53.546;10.104;2023-04-01T00:00:50;12.90;99.90
11221;DHT22;8517;53.546;10.104;2023-04-01T00:03:18;12.90;99.90
11221;DHT22;8517;53.546;10.104;2023-04-01T00:05:46;12.90;99.90
11221;DHT22;8517;53.546;10.104;2023-04-01T00:08:13;12.80;99.90
11221;DHT22;8517;53.546;10.104;2023-04-01T00:10:40;12.80;99.90
11221;DHT22;8517;53.546;10.104;2023-04-01T00:13:07;12.80;99.90
11221;DHT22;8517;53.546;10.104;2023-04-01T00:15:35;12.80;99.90
11221;DHT22;8517;53.546;10.104;2023-04-01T00:18:03;12.80;99.90
11221;DHT22;8517;53.546;10.104;2023-04-01T00:20:30;12.70;99.90
11221;DHT22;8517;53.546;10.104;2023-04-01T00:22:57;12.70;99.90
11221;DHT22;8517;53.546;10.104;2023-04-01T00:25:24;12.70;99.90
11221;DHT22;8517;53.546;10.104;2023-04-01T00:27:51;12.70;99.90
11221;DHT22;8517;53.546;10.104;2023-04-01T00:30:18;12.70;99.90
11221;DHT22;8517;53.546;10.104;2023-04-01T00:32:46;12.70;99.90
11221;DHT22;8517;53.546;10.104;2023-04-01T00:35:13;12.60;99.90
11221;DHT22;8517;53.546;10.104;2023-04-01T00:37:40;12.60;99.90
11221;DHT22;8517;53.546;10.104;2023-04-01T00:40:17;12.60;99.90
11221;DHT22;8517;53.546;10.104;2023-04-01T00:42:47;12.60;99.90
11221;DHT22;8517;53.546;10.104;2023-04-01T00:45:36;12.60;99.90
11221;DHT22;8517;53.546;10.104;2023-04-01T00:48:09;12.60;99.90
11221;DHT22;8517;53.546;10.104;2023-04-01T00:50:37;12.60;99.90
11221;DHT22;8517;53.546;10.104;2023-04-01T00:53:05;12.60;99.90
11221;DHT22;8517;53.546;10.104;2023-04-01T00:55:35;12.60;99.90
11221;DHT22;8517;53.546;10.104;2023-04-01T00:58:05;12.60;99.90
11221;DHT22;8517;53.546;10.104;2023-04-01T01:00:34;12.50;99.90
11221;DHT22;8517;53.546;10.104;2023-04-01T01:03:02;12.50;99.90
11221;DHT22;8517;53.546;10.104;2023-04-01T01:05:40;12.50;99.90
11221;DHT22;8517;53.546;10.104;2023-04-01T01:08:13;12.50;99.90
11221;DHT22;8517;53.546;10.104;2023-04-01T01:10:43;12.50;99.90
11221;DHT22;8517;53.546;10.104;2023-04-01T01:13:17;12.50;99.90
11221;DHT22;8517;53.546;10.104;2023-04-01T01:15:49;12.50;99.90
11221;DHT22;8517;53.546;10.104;2023-04-01T01:18:23;12.40;99.90
11221;DHT22;8517;53.546;10.104;2023-04-01T01:24:14;12.50;99.90
11221;DHT22;8517;53.546;10.104;2023-04-01T01:27:02;12.50;99.90
11221;DHT22;8517;53.546;10.104;2023-04-01T01:32:45;12.40;99.90
11221;DHT22;8517;53.546;10.104;2023-04-01T01:35:21;12.50;99.90
11221;DHT22;8517;53.546;10.104;2023-04-01T01:37:52;12.40;99.90
11221;DHT22;8517;53.546;10.104;2023-04-01T01:40:20;12.40;99.90
11221;DHT22;8517;53.546;10.104;2023-04-01T01:42:51;12.40;99.90
11221;DHT22;8517;53.546;10.104;2023-04-01T01:45:23;12.40;99.90
11221;DHT22;8517;53.546;10.104;2023-04-01T01:47:52;12.40;99.90
11221;DHT22;8517;53.546;10.104;2023-04-01T01:50:21;12.40;99.90
11221;DHT22;8517;53.546;10.104;2023-04-01T01:52:49;12.40;99.90
11221;DHT22;8517;53.546;10.104;2023-04-01T01:55:26;12.40;99.90
11221;DHT22;8517;53.546;10.104;2023-04-01T01:57:54;12.40;99.90
11221;DHT22;8517;53.546;10.104;2023-04-01T02:00:22;12.40;99.90
11221;DHT22;8517;53.546;10.104;2023-04-01T02:02:49;12.40;99.90
11221;DHT22;8517;53.546;10.104;2023-04-01T02:05:20;12.40;99.90
11221;DHT22;8517;53.546;10.104;2023-04-01T02:07:51;12.40;99.90
11221;DHT22;8517;53.546;10.104;2023-04-01T02:10:21;12.40;99.90
11221;DHT22;8517;53.546;10.104;2023-04-01T02:12:51;12.30;99.90
11221;DHT22;8517;53.546;10.104;2023-04-01T02:15:20;12.30;99.90
11221;DHT22;8517;53.546;10.104;2023-04-01T02:17:48;12.40;99.90
11221;DHT22;8517;53.546;10.104;2023-04-01T02:20:18;12.40;99.90
11221;DHT22;8517;53.546;10.104;2023-04-01T02:22:50;12.40;99.90
11221;DHT22;8517;53.546;10.104;2023-04-01T02:25:21;12.40;99.90
11221;DHT22;8517;53.546;10.104;2023-04-01T02:27:49;12.40;99.90
11221;DHT22;8517;53.546;10.104;2023-04-01T02:30:17;12.40;99.90
11221;DHT22;8517;53.546;10.104;2023-04-01T02:32:45;12.40;99.90
11221;DHT22;8517;53.546;10.104;2023-04-01T02:35:14;12.40;99.90
11221;DHT22;8517;53.546;10.104;2023-04-01T02:37:43;12.30;99.90
11221;DHT22;8517;53.546;10.104;2023-04-01T02:40:13;12.40;99.90
11221;DHT22;8517;53.546;10.104;2023-04-01T02:42:40;12.30;99.90
11221;DHT22;8517;53.546;10.104;2023-04-01T02:45:08;12.40;99.90
11221;DHT22;8517;53.546;10.104;2023-04-01T02:47:35;12.30;99.90
11221;DHT22;8517;53.546;10.104;2023-04-01T02:50:02;12.30;99.90
11221;DHT22;8517;53.546;10.104;2023-04-01T02:52:29;12.30;99.90
11221;DHT22;8517;53.546;10.104;2023-04-01T02:54:56;12.30;99.90
11221;DHT22;8517;53.546;10.104;2023-04-01T02:57:25;12.30;99.90
11221;DHT22;8517;53.546;10.104;2023-04-01T02:59:52;12.30;99.90
11221;DHT22;8517;53.546;10.104;2023-04-01T03:02:18;12.20;99.90
11221;DHT22;8517;53.546;10.104;2023-04-01T03:04:45;12.30;99.90
11221;DHT22;8517;53.546;10.104;2023-04-01T03:07:12;12.20;99.90
11221;DHT22;8517;53.546;10.104;2023-04-01T03:09:39;12.20;99.90
11221;DHT22;8517;53.546;10.104;2023-04-01T03:12:06;12.20;99.90
11221;DHT22;8517;53.546;10.104;2023-04-01T03:14:34;12.20;99.90
11221;DHT22;8517;53.546;10.104;2023-04-01T03:17:01;12.20;99.90
11221;DHT22;8517;53.546;10.104;2023-04-01T03:19:28;12.20;99.90
11221;DHT22;8517;53.546;10.104;2023-04-01T03:21:55;12.20;99.90
11221;DHT22;8517;53.546;10.104;2023-04-01T03:24:21;12.20;99.90
11221;DHT22;8517;53.546;10.104;2023-04-01T03:26:48;12.20;99.90
11221;DHT22;8517;53.546;10.104;2023-04-01T03:29:15;12.20;99.90
11221;DHT22;8517;53.546;10.104;2023-04-01T03:31:43;12.20;99.90
11221;DHT22;8517;53.546;10.104;2023-04-01T03:34:10;12.20;99.90
11221;DHT22;8517;53.546;10.104;2023-04-01T03:36:37;12.20;99.90
11221;DHT22;8517;53.546;10.104;2023-04-01T03:39:04;12.20;99.90
11221;DHT22;8517;53.546;10.104;2023-04-01T03:41:32;12.20;99.90
11221;DHT22;8517;53.546;10.104;2023-04-01T03:43:59;12.20;99.90
11221;DHT22;8517;53.546;10.104;2023-04-01T03:46:26;12.20;99.90
11221;DHT22;8517;53.546;10.104;2023-04-01T03:48:54;12.20;99.90
11221;DHT22;8517;53.546;10.104;2023-04-01T03:51:21;12.20;99.90
11221;DHT22;8517;53.546;10.104;2023-04-01T03:53:48;12.20;99.90
11221;DHT22;8517;53.546;10.104;2023-04-01T03:56:15;12.20;99.90
11221;DHT22;8517;53.546;10.104;2023-04-01T03:58:42;12.20;99.90
11221;DHT22;8517;53.546;10.104;2023-04-01T04:01:17;12.10;99.90
11221;DHT22;8517;53.546;10.104;2023-04-01T04:03:44;12.20;99.90
11221;DHT22;8517;53.546;10.104;2023-04-01T04:06:14;12.10;99.90
11221;DHT22;8517;53.546;10.104;2023-04-01T04:08:41;12.10;99.90
11221;DHT22;8517;53.546;10.104;2023-04-01T04:11:08;12.20;99.90
11221;DHT22;8517;53.546;10.104;2023-04-01T04:13:35;12.20;99.90
11221;DHT22;8517;53.546;10.104;2023-04-01T04:16:02;12.20;99.90
11221;DHT22;8517;53.546;10.104;2023-04-01T04:18:32;12.20;99.90
11221;DHT22;8517;53.546;10.104;2023-04-01T04:20:58;12.20;99.90
11221;DHT22;8517;53.546;10.104;2023-04-01T04:23:27;12.20;99.90
11221;DHT22;8517;53.546;10.104;2023-04-01T04:25:56;12.10;99.90
11221;DHT22;8517;53.546;10.104;2023-04-01T04:28:23;12.20;99.90
11221;DHT22;8517;53.546;10.104;2023-04-01T04:30:50;12.10;99.90
11221;DHT22;8517;53.546;10.104;2023-04-01T04:33:17;12.10;99.90
11221;DHT22;8517;53.546;10.104;2023-04-01T04:35:44;12.10;99.90
11221;DHT22;8517;53.546;10.104;2023-04-01T04:38:11;12.10;99.90
11221;DHT22;8517;53.546;10.104;2023-04-01T04:40:42;12.20;99.90
11221;DHT22;8517;53.546;10.104;2023-04-01T04:43:14;12.10;99.90
11221;DHT22;8517;53.546;10.104;2023-04-01T04:45:41;12.10;99.90
11221;DHT22;8517;53.546;10.104;2023-04-01T04:48:10;12.10;99.90
11221;DHT22;8517;53.546;10.104;2023-04-01T04:50:40;12.10;99.90
11221;DHT22;8517;53.546;10.104;2023-04-01T04:53:09;12.10;99.90
11221;DHT22;8517;53.546;10.104;2023-04-01T04:55:38;12.10;99.90
11221;DHT22;8517;53.546;10.104;2023-04-01T04:58:13;12.20;99.90
11221;DHT22;8517;53.546;10.104;2023-04-01T05:00:40;12.20;99.90
11221;DHT22;8517;53.546;10.104;2023-04-01T05:03:07;12.20;99.90
11221;DHT22;8517;53.546;10.104;2023-04-01T05:05:33;12.20;99.90
11221;DHT22;8517;53.546;10.104;2023-04-01T05:08:00;12.20;99.90
11221;DHT22;8517;53.546;10.104;2023-04-01T05:10:27;12.20;99.90
11221;DHT22;8517;53.546;10.104;2023-04-01T05:12:54;12.20;99.90
11221;DHT22;8517;53.546;10.104;2023-04-01T05:15:23;12.20;99.90
11221;DHT22;8517;53.546;10.104;2023-04-01T05:17:50;12.20;99.90
11221;DHT22;8517;53.546;10.104;2023-04-01T05:20:17;12.20;99.90
11221;DHT22;8517;53.546;10.104;2023-04-01T05:22:44;12.20;99.90
11221;DHT22;8517;53.546;10.104;2023-04-01T05:25:11;12.20;99.90
11221;DHT22;8517;53.546;10.104;2023-04-01T05:27:37;12.20;99.90
11221;DHT22;8517;53.546;10.104;2023-04-01T05:30:06;12.20;99.90
11221;DHT22;8517;53.546;10.104;2023-04-01T05:32:34;12.20;99.90
11221;DHT22;8517;53.546;10.104;2023-04-01T05:35:01;12.20;99.90
11221;DHT22;8517;53.546;10.104;2023-04-01T05:37:28;12.20;99.90
11221;DHT22;8517;53.546;10.104;2023-04-01T05:39:54;12.10;99.90
11221;DHT22;8517;53.546;10.104;2023-04-01T05:42:21;12.10;99.90
11221;DHT22;8517;53.546;10.104;2023-04-01T05:44:48;12.10;99.90
11221;DHT22;8517;53.546;10.104;2023-04-01T05:47:15;12.00;99.90
11221;DHT22;8517;53.546;10.104;2023-04-01T05:49:43;11.90;99.90
11221;DHT22;8517;53.546;10.104;2023-04-01T05:52:10;11.70;99.90
11221;DHT22;8517;53.546;10.104;2023-04-01T05:54:36;11.60;99.90
11221;DHT22;8517;53.546;10.104;2023-04-01T05:57:03;11.50;99.90
11221;DHT22;8517;53.546;10.104;2023-04-01T05:59:30;11.40;99.90
11221;DHT22;8517;53.546;10.104;2023-04-01T06:01:57;11.20;99.90
11221;DHT22;8517;53.546;10.104;2023-04-01T06:04:24;11.10;99.90
11221;DHT22;8517;53.546;10.104;2023-04-01T06:06:53;11.00;99.90
11221;DHT22;8517;53.546;10.104;2023-04-01T06:09:23;10.90;99.90
11221;DHT22;8517;53.546;10.104;2023-04-01T06:15:06;10.70;99.90
11221;DHT22;8517;53.546;10.104;2023-04-01T06:17:47;10.70;99.90
11221;DHT22;8517;53.546;10.104;2023-04-01T06:20:24;10.60;99.90
11221;DHT22;8517;53.546;10.104;2023-04-01T06:23:09;10.50;99.90
11221;DHT22;8517;53.546;10.104;2023-04-01T06:29:07;10.40;99.90
11221;DHT22;8517;53.546;10.104;2023-04-01T06:32:06;10.30;99.90
11221;DHT22;8517;53.546;10.104;2023-04-01T06:34:56;10.30;99.90
11221;DHT22;8517;53.546;10.104;2023-04-01T06:37:40;10.20;99.90
11221;DHT22;8517;53.546;10.104;2023-04-01T06:40:34;10.00;99.90
11221;DHT22;8517;53.546;10.104;2023-04-01T06:43:10;10.00;99.90
11221;DHT22;8517;53.546;10.104;2023-04-01T06:45:45;9.90;99.90
11221;DHT22;8517;53.546;10.104;2023-04-01T06:48:38;9.90;99.90
11221;DHT22;8517;53.546;10.104;2023-04-01T06:51:18;9.90;99.90
11221;DHT22;8517;53.546;10.104;2023-04-01T06:53:51;9.80;99.90
11221;DHT22;8517;53.546;10.104;2023-04-01T06:56:25;9.80;99.90
11221;DHT22;8517;53.546;10.104;2023-04-01T06:58:55;9.70;99.90
11221;DHT22;8517;53.546;10.104;2023-04-01T07:01:32;9.70;99.90
11221;DHT22;8517;53.546;10.104;2023-04-01T07:04:05;9.70;99.90
11221;DHT22;8517;53.546;10.104;2023-04-01T07:06:35;9.60;99.90
11221;DHT22;8517;53.546;10.104;2023-04-01T07:09:06;9.60;99.90
11221;DHT22;8517;53.546;10.104;2023-04-01T07:11:45;9.60;99.90
11221;DHT22;8517;53.546;10.104;2023-04-01T07:14:18;9.50;99.90
11221;DHT22;8517;53.546;10.104;2023-04-01T07:16:53;9.50;99.90
11221;DHT22;8517;53.546;10.104;2023-04-01T07:19:51;9.40;99.90
11221;DHT22;8517;53.546;10.104;2023-04-01T07:22:21;9.40;99.90
11221;DHT22;8517;53.546;10.104;2023-04-01T07:24:53;9.30;99.90
11221;DHT22;8517;53.546;10.104;2023-04-01T07:27:23;9.30;99.90
11221;DHT22;8517;53.546;10.104;2023-04-01T07:29:50;9.30;99.90
11221;DHT22;8517;53.546;10.104;2023-04-01T07:32:28;9.30;99.90
11221;DHT22;8517;53.546;10.104;2023-04-01T07:35:11;9.30;99.90
11221;DHT22;8517;53.546;10.104;2023-04-01T07:37:49;9.20;99.90
11221;DHT22;8517;53.546;10.104;2023-04-01T07:40:25;9.30;99.90
11221;DHT22;8517;53.546;10.104;2023-04-01T07:43:13;9.30;99.90
11221;DHT22;8517;53.546;10.104;2023-04-01T07:45:57;9.30;99.90
11221;DHT22;8517;53.546;10.104;2023-04-01T07:48:35;9.30;99.90
11221;DHT22;8517;53.546;10.104;2023-04-01T07:51:10;9.30;99.90
11221;DHT22;8517;53.546;10.104;2023-04-01T07:53:44;9.30;99.90
11221;DHT22;8517;53.546;10.104;2023-04-01T07:56:15;9.30;99.90
11221;DHT22;8517;53.546;10.104;2023-04-01T07:58:55;9.30;99.90
11221;DHT22;8517;53.546;10.104;2023-04-01T08:01:28;9.20;99.90
11221;DHT22;8517;53.546;10.104;2023-04-01T08:04:25;9.20;99.90
11221;DHT22;8517;53.546;10.104;2023-04-01T08:06:59;9.10;99.90
11221;DHT22;8517;53.546;10.104;2023-04-01T08:09:33;9.10;99.90
11221;DHT22;8517;53.546;10.104;2023-04-01T08:12:17;9.00;99.90
11221;DHT22;8517;53.546;10.104;2023-04-01T08:14:56;9.00;99.90
11221;DHT22;8517;53.546;10.104;2023-04-01T08:17:31;9.10;99.90
11221;DHT22;8517;53.546;10.104;2023-04-01T08:20:12;9.00;99.90
11221;DHT22;8517;53.546;10.104;2023-04-01T08:22:43;9.00;99.90
11221;DHT22;8517;53.546;10.104;2023-04-01T08:25:17;9.00;99.90
11221;DHT22;8517;53.546;10.104;2023-04-01T08:27:50;9.00;99.90
11221;DHT22;8517;53.546;10.104;2023-04-01T08:30:21;9.00;99.90
11221;DHT22;8517;53.546;10.104;2023-04-01T08:32:56;8.90;99.90
11221;DHT22;8517;53.546;10.104;2023-04-01T08:35:34;9.00;99.90
11221;DHT22;8517;53.546;10.104;2023-04-01T08:38:09;8.90;99.90
11221;DHT22;8517;53.546;10.104;2023-04-01T08:40:58;9.00;99.90
11221;DHT22;8517;53.546;10.104;2023-04-01T08:49:51;9.00;99.90
11221;DHT22;8517;53.546;10.104;2023-04-01T08:52:33;9.00;99.90
11221;DHT22;8517;53.546;10.104;2023-04-01T08:55:22;9.00;99.90
11221;DHT22;8517;53.546;10.104;2023-04-01T08:58:14;9.00;99.90
11221;DHT22;8517;53.546;10.104;2023-04-01T09:00:47;9.00;99.90
11221;DHT22;8517;53.546;10.104;2023-04-01T09:03:37;9.10;99.90
11221;DHT22;8517;53.546;10.104;2023-04-01T09:06:24;9.10;99.90
11221;DHT22;8517;53.546;10.104;2023-04-01T09:09:21;9.10;99.90
11221;DHT22;8517;53.546;10.104;2023-04-01T09:12:23;9.10;99.90
11221;DHT22;8517;53.546;10.104;2023-04-01T09:15:16;9.10;99.90
11221;DHT22;8517;53.546;10.104;2023-04-01T09:18:20;9.20;99.90
11221;DHT22;8517;53.546;10.104;2023-04-01T09:27:30;9.20;99.90
11221;DHT22;8517;53.546;10.104;2023-04-01T09:30:38;9.20;99.90
11221;DHT22;8517;53.546;10.104;2023-04-01T09:36:21;9.20;99.90
11221;DHT22;8517;53.546;10.104;2023-04-01T09:45:21;9.20;99.90
11221;DHT22;8517;53.546;10.104;2023-04-01T09:52:11;9.30;99.90
11221;DHT22;8517;53.546;10.104;2023-04-01T09:55:00;9.30;99.90
11221;DHT22;8517;53.546;10.104;2023-04-01T10:01:03;9.40;99.90
11221;DHT22;8517;53.546;10.104;2023-04-01T10:04:24;9.40;99.90
11221;DHT22;8517;53.546;10.104;2023-04-01T10:10:28;9.40;99.90
11221;DHT22;8517;53.546;10.104;2023-04-01T10:13:35;9.30;99.90
11221;DHT22;8517;53.546;10.104;2023-04-01T10:16:27;9.30;99.90
11221;DHT22;8517;53.546;10.104;2023-04-01T10:19:14;9.30;99.90
11221;DHT22;8517;53.546;10.104;2023-04-01T10:27:54;9.20;99.90
11221;DHT22;8517;53.546;10.104;2023-04-01T10:36:55;9.20;99.90
11221;DHT22;8517;53.546;10.104;2023-04-01T10:43:07;9.30;99.90
11221;DHT22;8517;53.546;10.104;2023-04-01T10:49:23;9.40;99.90
11221;DHT22;8517;53.546;10.104;2023-04-01T10:52:12;9.40;99.90
11221;DHT22;8517;53.546;10.104;2023-04-01T10:54:49;9.40;99.90
11221;DHT22;8517;53.546;10.104;2023-04-01T11:13:06;9.60;99.90
11221;DHT22;8517;53.546;10.104;2023-04-01T11:19:10;9.60;99.90
11221;DHT22;8517;53.546;10.104;2023-04-01T11:25:11;9.70;99.90
11221;DHT22;8517;53.546;10.104;2023-04-01T11:28:09;9.70;99.90
11221;DHT22;8517;53.546;10.104;2023-04-01T11:30:53;9.70;99.90
11221;DHT22;8517;53.546;10.104;2023-04-01T11:33:31;9.80;99.90
11221;DHT22;8517;53.546;10.104;2023-04-01T11:36:37;9.80;99.90
11221;DHT22;8517;53.546;10.104;2023-04-01T11:39:47;9.70;99.90
11221;DHT22;8517;53.546;10.104;2023-04-01T11:43:11;9.70;99.90
11221;DHT22;8517;53.546;10.104;2023-04-01T11:46:03;9.70;99.90
11221;DHT22;8517;53.546;10.104;2023-04-01T11:48:55;9.70;99.90
11221;DHT22;8517;53.546;10.104;2023-04-01T11:51:54;9.60;99.90
11221;DHT22;8517;53.546;10.104;2023-04-01T11:54:42;9.60;99.90
11221;DHT22;8517;53.546;10.104;2023-04-01T11:57:32;9.50;99.90
11221;DHT22;8517;53.546;10.104;2023-04-01T12:00:34;9.40;99.90
11221;DHT22;8517;53.546;10.104;2023-04-01T12:03:41;9.40;99.90
11221;DHT22;8517;53.546;10.104;2023-04-01T12:06:18;9.40;99.90
11221;DHT22;8517;53.546;10.104;2023-04-01T12:08:51;9.40;99.90
11221;DHT22;8517;53.546;10.104;2023-04-01T12:11:25;9.30;99.90
11221;DHT22;8517;53.546;10.104;2023-04-01T12:14:02;9.40;99.90
11221;DHT22;8517;53.546;10.104;2023-04-01T12:16:54;9.40;99.90
11221;DHT22;8517;53.546;10.104;2023-04-01T12:19:35;9.40;99.90
11221;DHT22;8517;53.546;10.104;2023-04-01T12:22:23;9.40;99.90
11221;DHT22;8517;53.546;10.104;2023-04-01T12:25:06;9.40;99.90
11221;DHT22;8517;53.546;10.104;2023-04-01T12:28:06;9.50;99.90
11221;DHT22;8517;53.546;10.104;2023-04-01T12:30:53;9.40;99.90
11221;DHT22;8517;53.546;10.104;2023-04-01T12:36:54;9.50;99.90
11221;DHT22;8517;53.546;10.104;2023-04-01T12:45:46;9.50;99.90
11221;DHT22;8517;53.546;10.104;2023-04-01T12:48:41;9.50;99.90
11221;DHT22;8517;53.546;10.104;2023-04-01T12:52:06;9.50;99.90
11221;DHT22;8517;53.546;10.104;2023-04-01T13:15:14;9.10;99.90
11221;DHT22;8517;53.546;10.104;2023-04-01T13:18:01;9.10;99.90
11221;DHT22;8517;53.546;10.104;2023-04-01T13:20:54;9.00;99.90
11221;DHT22;8517;53.546;10.104;2023-04-01T13:23:37;8.90;99.90
11221;DHT22;8517;53.546;10.104;2023-04-01T13:26:18;8.90;99.90
11221;DHT22;8517;53.546;10.104;2023-04-01T13:28:58;8.80;99.90
11221;DHT22;8517;53.546;10.104;2023-04-01T13:31:55;8.80;99.90
11221;DHT22;8517;53.546;10.104;2023-04-01T13:34:44;8.80;99.90
11221;DHT22;8517;53.546;10.104;2023-04-01T13:37:24;8.70;99.90
11221;DHT22;8517;53.546;10.104;2023-04-01T13:40:02;8.70;99.90
11221;DHT22;8517;53.546;10.104;2023-04-01T13:42:35;8.70;99.90
11221;DHT22;8517;53.546;10.104;2023-04-01T13:45:12;8.70;99.90
11221;DHT22;8517;53.546;10.104;2023-04-01T13:51:01;8.70;99.90
11221;DHT22;8517;53.546;10.104;2023-04-01T13:53:57;8.60;99.90
11221;DHT22;8517;53.546;10.104;2023-04-01T13:56:50;8.60;99.90
11221;DHT22;8517;53.546;10.104;2023-04-01T13:59:40;8.70;99.90
11221;DHT22;8517;53.546;10.104;2023-04-01T14:02:38;8.60;99.90
11221;DHT22;8517;53.546;10.104;2023-04-01T14:05:39;8.70;99.90
11221;DHT22;8517;53.546;10.104;2023-04-01T14:08:25;8.70;99.90
11221;DHT22;8517;53.546;10.104;2023-04-01T14:11:07;8.80;99.90
11221;DHT22;8517;53.546;10.104;2023-04-01T14:13:46;8.80;99.90
11221;DHT22;8517;53.546;10.104;2023-04-01T14:19:53;8.80;99.90
11221;DHT22;8517;53.546;10.104;2023-04-01T14:22:30;8.80;99.90
11221;DHT22;8517;53.546;10.104;2023-04-01T14:25:25;8.80;99.90
11221;DHT22;8517;53.546;10.104;2023-04-01T14:28:03;8.70;99.90
11221;DHT22;8517;53.546;10.104;2023-04-01T14:30:46;8.70;99.90
11221;DHT22;8517;53.546;10.104;2023-04-01T14:33:26;8.60;99.90
11221;DHT22;8517;53.546;10.104;2023-04-01T14:36:11;8.60;99.90
11221;DHT22;8517;53.546;10.104;2023-04-01T14:39:46;8.50;99.90
11221;DHT22;8517;53.546;10.104;2023-04-01T14:48:25;8.20;99.90
11221;DHT22;8517;53.546;10.104;2023-04-01T14:51:18;8.20;99.90
11221;DHT22;8517;53.546;10.104;2023-04-01T14:54:06;8.10;99.90
11221;DHT22;8517;53.546;10.104;2023-04-01T14:56:39;8.10;99.90
11221;DHT22;8517;53.546;10.104;2023-04-01T14:59:10;8.00;99.90
11221;DHT22;8517;53.546;10.104;2023-04-01T15:01:50;8.00;99.90
11221;DHT22;8517;53.546;10.104;2023-04-01T15:04:52;8.00;99.90
11221;DHT22;8517;53.546;10.104;2023-04-01T15:07:47;8.00;99.90
11221;DHT22;8517;53.546;10.104;2023-04-01T15:10:43;8.00;99.90
11221;DHT22;8517;53.546;10.104;2023-04-01T15:13:16;8.00;99.90
11221;DHT22;8517;53.546;10.104;2023-04-01T15:16:02;8.00;99.90
11221;DHT22;8517;53.546;10.104;2023-04-01T15:18:38;7.90;99.90
11221;DHT22;8517;53.546;10.104;2023-04-01T15:21:18;7.90;99.90
11221;DHT22;8517;53.546;10.104;2023-04-01T15:24:03;7.90;99.90
11221;DHT22;8517;53.546;10.104;2023-04-01T15:26:47;7.80;99.90
11221;DHT22;8517;53.546;10.104;2023-04-01T15:29:44;7.70;99.90
11221;DHT22;8517;53.546;10.104;2023-04-01T15:32:17;7.70;99.90
11221;DHT22;8517;53.546;10.104;2023-04-01T15:34:53;7.70;99.90
11221;DHT22;8517;53.546;10.104;2023-04-01T15:37:31;7.60;99.90
11221;DHT22;8517;53.546;10.104;2023-04-01T15:40:11;7.70;99.90
11221;DHT22;8517;53.546;10.104;2023-04-01T15:42:52;7.60;99.90
11221;DHT22;8517;53.546;10.104;2023-04-01T15:45:32;7.60;99.90
11221;DHT22;8517;53.546;10.104;2023-04-01T15:48:18;7.60;99.90
11221;DHT22;8517;53.546;10.104;2023-04-01T15:54:26;7.50;99.90
11221;DHT22;8517;53.546;10.104;2023-04-01T15:57:04;7.40;99.90
11221;DHT22;8517;53.546;10.104;2023-04-01T15:59:53;7.30;99.90
11221;DHT22;8517;53.546;10.104;2023-04-01T16:02:24;7.30;99.90
11221;DHT22;8517;53.546;10.104;2023-04-01T16:04:59;7.30;99.90
11221;DHT22;8517;53.546;10.104;2023-04-01T16:10:50;7.20;99.90
11221;DHT22;8517;53.546;10.104;2023-04-01T16:13:28;7.20;99.90
11221;DHT22;8517;53.546;10.104;2023-04-01T16:16:05;7.20;99.90
11221;DHT22;8517;53.546;10.104;2023-04-01T16:18:45;7.20;99.90
11221;DHT22;8517;53.546;10.104;2023-04-01T16:21:27;7.20;99.90
11221;DHT22;8517;53.546;10.104;2023-04-01T16:24:05;7.20;99.90
11221;DHT22;8517;53.546;10.104;2023-04-01T16:26:44;7.20;99.90
11221;DHT22;8517;53.546;10.104;2023-04-01T16:29:22;7.20;99.90
11221;DHT22;8517;53.546;10.104;2023-04-01T16:31:55;7.20;99.90
11221;DHT22;8517;53.546;10.104;2023-04-01T16:34:27;7.20;99.90
11221;DHT22;8517;53.546;10.104;2023-04-01T16:37:13;7.20;99.90
11221;DHT22;8517;53.546;10.104;2023-04-01T16:40:00;7.20;99.90
11221;DHT22;8517;53.546;10.104;2023-04-01T16:42:43;7.10;99.90
11221;DHT22;8517;53.546;10.104;2023-04-01T16:45:22;7.10;99.90
11221;DHT22;8517;53.546;10.104;2023-04-01T16:47:51;6.90;99.90
11221;DHT22;8517;53.546;10.104;2023-04-01T16:50:22;7.00;99.90
11221;DHT22;8517;53.546;10.104;2023-04-01T16:53:07;7.00;99.90
11221;DHT22;8517;53.546;10.104;2023-04-01T16:55:48;7.00;99.90
11221;DHT22;8517;53.546;10.104;2023-04-01T16:58:24;6.90;99.90
11221;DHT22;8517;53.546;10.104;2023-04-01T17:01:00;6.90;99.90
11221;DHT22;8517;53.546;10.104;2023-04-01T17:03:50;6.90;99.90
11221;DHT22;8517;53.546;10.104;2023-04-01T17:06:30;6.80;99.90
11221;DHT22;8517;53.546;10.104;2023-04-01T17:09:10;6.80;99.90
11221;DHT22;8517;53.546;10.104;2023-04-01T17:11:44;6.80;99.90
11221;DHT22;8517;53.546;10.104;2023-04-01T17:14:20;6.80;99.90
11221;DHT22;8517;53.546;10.104;2023-04-01T17:17:01;6.80;99.90
11221;DHT22;8517;53.546;10.104;2023-04-01T17:19:49;6.80;99.90
11221;DHT22;8517;53.546;10.104;2023-04-01T17:22:27;6.90;99.90
11221;DHT22;8517;53.546;10.104;2023-04-01T17:25:13;6.90;99.90
11221;DHT22;8517;53.546;10.104;2023-04-01T17:27:50;6.90;99.90
11221;DHT22;8517;53.546;10.104;2023-04-01T17:30:26;6.90;99.90
11221;DHT22;8517;53.546;10.104;2023-04-01T17:35:57;7.00;99.90
11221;DHT22;8517;53.546;10.104;2023-04-01T17:38:49;7.00;99.90
11221;DHT22;8517;53.546;10.104;2023-04-01T17:41:50;7.00;99.90
11221;DHT22;8517;53.546;10.104;2023-04-01T17:44:34;7.00;99.90
11221;DHT22;8517;53.546;10.104;2023-04-01T17:47:57;6.90;99.90
11221;DHT22;8517;53.546;10.104;2023-04-01T17:50:42;7.00;99.90
11221;DHT22;8517;53.546;10.104;2023-04-01T17:53:22;7.00;99.90
11221;DHT22;8517;53.546;10.104;2023-04-01T17:56:32;6.90;99.90
11221;DHT22;8517;53.546;10.104;2023-04-01T17:59:12;7.00;99.90
11221;DHT22;8517;53.546;10.104;2023-04-01T18:01:56;7.00;99.90
11221;DHT22;8517;53.546;10.104;2023-04-01T18:04:54;7.00;99.90
11221;DHT22;8517;53.546;10.104;2023-04-01T18:10:28;6.90;99.90
11221;DHT22;8517;53.546;10.104;2023-04-01T18:13:14;6.90;99.90
11221;DHT22;8517;53.546;10.104;2023-04-01T18:15:46;6.90;99.90
11221;DHT22;8517;53.546;10.104;2023-04-01T18:18:35;7.00;99.90
11221;DHT22;8517;53.546;10.104;2023-04-01T18:24:24;7.00;99.90
11221;DHT22;8517;53.546;10.104;2023-04-01T18:27:02;7.00;99.90
11221;DHT22;8517;53.546;10.104;2023-04-01T18:29:36;7.00;99.90
11221;DHT22;8517;53.546;10.104;2023-04-01T18:32:15;7.00;99.90
11221;DHT22;8517;53.546;10.104;2023-04-01T18:34:53;7.00;99.90
11221;DHT22;8517;53.546;10.104;2023-04-01T18:37:25;7.00;99.90
11221;DHT22;8517;53.546;10.104;2023-04-01T18:39:59;7.10;99.90
11221;DHT22;8517;53.546;10.104;2023-04-01T18:42:38;7.10;99.90
11221;DHT22;8517;53.546;10.104;2023-04-01T18:45:19;7.00;99.90
11221;DHT22;8517;53.546;10.104;2023-04-01T18:47:58;7.00;99.90
11221;DHT22;8517;53.546;10.104;2023-04-01T18:50:29;7.00;99.90
11221;DHT22;8517;53.546;10.104;2023-04-01T18:53:10;6.90;99.90
11221;DHT22;8517;53.546;10.104;2023-04-01T18:55:47;6.90;99.90
11221;DHT22;8517;53.546;10.104;2023-04-01T18:58:23;6.80;99.90
11221;DHT22;8517;53.546;10.104;2023-04-01T19:01:02;6.80;99.90
11221;DHT22;8517;53.546;10.104;2023-04-01T19:03:35;6.80;99.90
11221;DHT22;8517;53.546;10.104;2023-04-01T19:06:15;6.70;99.90
11221;DHT22;8517;53.546;10.104;2023-04-01T19:08:44;6.70;99.90
11221;DHT22;8517;53.546;10.104;2023-04-01T19:14:52;6.70;99.90